Zionsville, Indiana
Current Conditions -  °F | °C
As of 3:35 AM on Friday 31 Oct 2014 (Local Time) from KTYQ Reporting Station
Broken Clouds Broken Clouds  
Wind Chill: 44°   Ceiling: 9000
Heat Index: 44°   Visibility: 10mi
Dew Point: 37°   Wind: 3mph
Humidity: 76%   Direction: 280°W
Pressure: 30.02"   Gusts: NA
Location:  39.95°N, 86.26°W
Report Text: KTYQ 310735Z AUTO 28003KT 10SM SCT038 BKN090 07/03 A3002 RMK AO2 T00670028
Loading
Personal Weather Stations






























Interactive Weather Map
Tropical Storm Tracking
New forecast layout! Learn more

10-Day Weather Forecast

Advertisements
Track Severe Weather on mobile